createdAt,value
2022-07-30T00:42:48.405Z,66.43
2022-07-30T04:53:21.832Z,122.77
2022-07-30T05:27:42.579Z,81.72
2022-07-30T06:22:05.931Z,88.00
2022-07-30T06:34:19.097Z,120.70
2022-07-30T06:41:37.960Z,126.10
2022-07-30T06:53:49.559Z,127.88
2022-07-30T07:03:39.540Z,103.60
2022-07-30T07:13:27.829Z,147.38
2022-07-30T07:25:40.802Z,169.88
2022-07-30T07:30:40.909Z,182.27
2022-07-30T07:33:07.307Z,98.97
2022-07-30T07:38:15.767Z,262.42
2022-07-30T07:40:42.142Z,259.88
2022-07-30T07:43:08.531Z,257.15
2022-07-30T07:45:34.902Z,269.80
2022-07-30T07:48:01.287Z,276.13
2022-07-30T07:50:27.662Z,279.45
2022-07-30T07:52:54.037Z,279.52
2022-07-30T07:55:22.384Z,277.52
2022-07-30T07:57:48.784Z,280.58
2022-07-30T08:00:15.388Z,262.60
2022-07-30T08:02:41.861Z,268.50
2022-07-30T08:05:08.535Z,185.38
2022-07-30T08:07:34.913Z,279.67
2022-07-30T08:10:01.280Z,188.95
2022-07-30T08:12:27.675Z,277.27
2022-07-30T08:14:54.041Z,188.23
2022-07-30T08:17:20.475Z,278.90
2022-07-30T08:19:47.762Z,259.08
2022-07-30T08:22:14.147Z,177.65
2022-07-30T08:24:40.517Z,219.88
2022-07-30T08:27:06.915Z,214.65
2022-07-30T08:29:33.285Z,186.43
2022-07-30T08:31:59.890Z,215.90
2022-07-30T08:34:26.464Z,186.05
2022-07-30T08:36:52.862Z,187.13
2022-07-30T08:39:19.231Z,223.27
2022-07-30T08:41:45.609Z,194.45
2022-07-30T08:44:12.994Z,190.52
2022-07-30T08:46:47.495Z,186.63
2022-07-30T08:49:14.323Z,190.00
2022-07-30T08:51:40.711Z,170.75
2022-07-30T08:54:07.091Z,175.70
2022-07-30T08:56:33.859Z,177.23
2022-07-30T08:59:00.571Z,177.50
2022-07-30T09:01:26.937Z,179.27
2022-07-30T09:03:53.380Z,178.35
2022-07-30T09:06:19.809Z,182.25
2022-07-30T09:08:46.190Z,188.50
2022-07-30T09:11:12.556Z,170.85
2022-07-30T09:13:40.181Z,173.75
2022-07-30T09:16:06.592Z,173.48
2022-07-30T09:18:42.016Z,254.80
2022-07-30T09:21:20.839Z,269.98
2022-07-30T09:23:57.696Z,236.55
2022-07-30T09:26:24.069Z,247.77
2022-07-30T09:28:50.453Z,279.45
2022-07-30T09:31:17.237Z,278.02
2022-07-30T09:33:44.422Z,278.00
2022-07-30T09:36:17.549Z,282.23
2022-07-30T09:38:51.111Z,151.45
2022-07-30T09:41:38.243Z,124.07
2022-07-30T09:44:05.921Z,118.63
2022-07-30T09:46:47.015Z,84.90
2022-07-30T09:51:57.040Z,302.60
2022-07-30T09:57:05.546Z,327.52
2022-07-30T09:59:35.000Z,320.55
2022-07-30T10:02:03.988Z,325.23
2022-07-30T10:04:32.228Z,283.08
2022-07-30T10:06:59.355Z,331.00
2022-07-30T10:09:30.159Z,336.48
2022-07-30T10:11:58.841Z,333.80
2022-07-30T10:14:31.385Z,341.17
2022-07-30T10:16:59.024Z,341.20
2022-07-30T10:19:40.068Z,339.20
2022-07-30T10:22:09.004Z,342.13
2022-07-30T10:24:37.956Z,339.00
2022-07-30T10:27:06.186Z,334.13
2022-07-30T10:29:34.276Z,337.52
2022-07-30T10:32:00.726Z,339.65
2022-07-30T10:34:31.352Z,341.83
2022-07-30T10:37:04.850Z,307.10
2022-07-30T10:39:43.549Z,289.95
2022-07-30T10:42:35.282Z,290.55
2022-07-30T10:45:17.428Z,290.92
2022-07-30T10:47:45.030Z,257.77
2022-07-30T10:50:17.332Z,281.40
2022-07-30T10:52:54.586Z,285.55
2022-07-30T10:55:36.592Z,310.02
2022-07-30T10:58:12.528Z,307.48
2022-07-30T11:00:54.058Z,313.88
2022-07-30T11:03:41.673Z,308.15
2022-07-30T11:06:14.392Z,310.48
2022-07-30T11:08:45.599Z,303.33
2022-07-30T11:11:59.275Z,301.55
2022-07-30T11:14:10.133Z,301.23
2022-07-30T11:16:37.119Z,300.63
2022-07-30T11:22:23.564Z,305.67
2022-07-30T11:24:49.970Z,305.63
2022-07-30T11:27:45.545Z,301.20
2022-07-30T11:30:18.347Z,306.77
2022-07-30T11:33:04.872Z,307.80
2022-07-30T11:35:34.928Z,303.00
2022-07-30T11:38:14.447Z,310.00
2022-07-30T11:40:48.083Z,305.38
2022-07-30T11:43:36.220Z,307.52
2022-07-30T11:46:16.410Z,310.90
2022-07-30T11:49:03.706Z,309.92
2022-07-30T11:51:41.315Z,306.35
2022-07-30T11:54:08.148Z,309.48
2022-07-30T11:56:34.524Z,309.95
2022-07-30T11:59:04.669Z,306.05
2022-07-30T12:01:31.195Z,306.00
2022-07-30T12:03:57.560Z,302.15
2022-07-30T12:06:23.932Z,306.15
2022-07-30T12:08:53.956Z,305.75
2022-07-30T12:11:22.877Z,300.45
2022-07-30T12:13:56.547Z,297.08
2022-07-30T12:16:22.962Z,289.55
2022-07-30T12:18:49.378Z,285.25
2022-07-30T12:21:15.858Z,284.52
2022-07-30T12:23:42.602Z,187.88
2022-07-30T12:26:09.418Z,187.60
2022-07-30T12:28:35.784Z,274.20
2022-07-30T12:31:02.284Z,272.35
2022-07-30T12:33:28.664Z,275.33
2022-07-30T12:35:56.381Z,279.00
2022-07-30T12:38:23.779Z,187.43
2022-07-30T12:41:03.499Z,286.58
2022-07-30T12:43:52.374Z,279.98
2022-07-30T12:46:22.200Z,262.30
2022-07-30T12:48:49.855Z,259.73
2022-07-30T12:51:16.272Z,257.95
2022-07-30T12:53:43.506Z,187.68
2022-07-30T12:56:13.273Z,280.10
2022-07-30T12:58:40.100Z,185.27
2022-07-30T13:01:06.655Z,187.75
2022-07-30T13:03:33.057Z,274.42
2022-07-30T13:06:00.793Z,271.38
2022-07-30T13:08:55.558Z,249.25
2022-07-30T13:11:23.304Z,256.33
2022-07-30T13:13:49.770Z,247.85
2022-07-30T13:16:16.199Z,92.95
2022-07-30T13:18:42.646Z,220.98
2022-07-30T13:21:09.428Z,245.80
2022-07-30T13:23:36.393Z,254.70
2022-07-30T13:26:02.922Z,242.15
2022-07-30T13:28:29.303Z,215.50
2022-07-30T13:30:56.386Z,241.63
2022-07-30T13:33:22.973Z,195.98
2022-07-30T13:35:49.349Z,210.27
2022-07-30T13:38:15.732Z,155.30
2022-07-30T13:40:42.109Z,167.52
2022-07-30T13:43:08.494Z,235.15
2022-07-30T13:45:34.916Z,246.85
2022-07-30T13:48:01.304Z,210.32
2022-07-30T13:50:27.675Z,223.95
2022-07-30T13:52:55.285Z,213.70
2022-07-30T13:55:24.164Z,203.52
2022-07-30T13:57:50.540Z,232.57
2022-07-30T14:00:17.006Z,220.10
2022-07-30T14:02:43.381Z,243.25
2022-07-30T14:05:09.794Z,240.88
2022-07-30T14:07:36.660Z,263.40
2022-07-30T14:10:04.015Z,202.18
2022-07-30T14:12:30.484Z,211.38
2022-07-30T14:14:56.867Z,206.27
2022-07-30T14:17:23.237Z,192.90
2022-07-30T14:19:49.612Z,184.88
2022-07-30T14:22:16.002Z,182.63
2022-07-30T14:24:42.379Z,184.10
2022-07-30T14:27:08.764Z,186.63
2022-07-30T14:29:35.150Z,185.55
2022-07-30T14:32:01.531Z,189.38
2022-07-30T14:34:27.902Z,191.75
2022-07-30T14:36:54.293Z,190.10
2022-07-30T14:39:20.676Z,185.57
2022-07-30T14:41:47.058Z,184.02
2022-07-30T14:44:13.425Z,184.40
2022-07-30T14:46:52.116Z,185.00
2022-07-30T14:49:19.002Z,183.10
2022-07-30T14:51:45.609Z,190.43
2022-07-30T14:54:11.977Z,190.70
2022-07-30T14:56:38.586Z,190.48
2022-07-30T14:59:04.972Z,194.23
2022-07-30T15:01:31.403Z,188.40
2022-07-30T15:03:58.121Z,186.35
2022-07-30T15:06:25.228Z,191.48
2022-07-30T15:08:51.605Z,192.85
2022-07-30T15:11:17.983Z,187.50
2022-07-30T15:13:50.078Z,187.02
2022-07-30T15:16:17.153Z,162.15
2022-07-30T15:18:43.538Z,214.13
2022-07-30T15:21:09.909Z,214.02
2022-07-30T15:23:36.278Z,235.13
2022-07-30T15:26:02.644Z,217.23
2022-07-30T15:28:29.038Z,218.80
2022-07-30T15:30:55.410Z,146.10
2022-07-30T15:33:21.994Z,224.68
2022-07-30T15:35:49.353Z,205.45
2022-07-30T15:38:15.849Z,197.32
2022-07-30T15:40:43.498Z,198.48
2022-07-30T15:43:10.092Z,191.43
2022-07-30T15:45:51.155Z,192.13
2022-07-30T15:48:26.842Z,190.00
2022-07-30T15:51:03.699Z,189.10
2022-07-30T15:53:30.767Z,184.52
2022-07-30T15:55:57.947Z,185.25
2022-07-30T15:58:24.357Z,186.30
2022-07-30T16:00:50.764Z,189.45
2022-07-30T16:03:17.198Z,189.48
2022-07-30T16:05:51.090Z,186.80
2022-07-30T16:08:19.047Z,192.45
2022-07-30T16:10:45.414Z,190.52
2022-07-30T16:13:11.793Z,190.00
2022-07-30T16:15:38.171Z,181.27
2022-07-30T16:18:04.694Z,181.55
2022-07-30T16:20:31.530Z,177.40
2022-07-30T16:22:57.906Z,181.55
2022-07-30T16:25:24.311Z,184.07
2022-07-30T16:27:50.700Z,178.98
2022-07-30T16:30:17.091Z,167.00
2022-07-30T16:32:43.468Z,165.82
2022-07-30T16:35:13.119Z,161.15
2022-07-30T16:37:39.869Z,155.55
2022-07-30T16:40:06.554Z,161.00
2022-07-30T16:42:32.928Z,158.50
2022-07-30T16:44:59.322Z,142.80
2022-07-30T16:47:25.720Z,127.68
2022-07-30T16:49:52.109Z,123.80
2022-07-30T16:52:18.499Z,115.15
2022-07-30T16:54:44.890Z,105.07
2022-07-30T16:57:11.261Z,140.87
2022-07-30T16:59:37.657Z,136.50
2022-07-30T17:02:04.223Z,142.05
2022-07-30T17:04:30.849Z,142.18
2022-07-30T17:06:57.234Z,142.68
2022-07-30T17:09:23.617Z,151.20
2022-07-30T17:11:52.340Z,153.68
2022-07-30T17:14:19.143Z,151.23
2022-07-30T17:16:45.531Z,150.70
2022-07-30T17:19:12.118Z,150.57
2022-07-30T17:21:38.492Z,153.52
2022-07-30T17:24:05.926Z,153.35
2022-07-30T17:26:32.306Z,155.88
2022-07-30T17:31:24.921Z,95.55
2022-07-30T17:33:51.294Z,47.53
2022-07-30T17:38:43.908Z,37.23
